createdAt,value
2019-02-11T00:00:20.409Z,30.3
2019-02-11T00:03:26.369Z,30.3
2019-02-11T00:06:35.091Z,30.3
2019-02-11T00:09:41.048Z,30.4
2019-02-11T00:12:47.008Z,30.4
2019-02-11T00:15:52.969Z,30.5
2019-02-11T00:18:58.867Z,30.5
2019-02-11T00:22:04.887Z,30.4
2019-02-11T00:25:10.849Z,30.4
2019-02-11T00:28:16.720Z,30.4
2019-02-11T00:31:22.819Z,30.5
2019-02-11T00:34:29.235Z,30.5
2019-02-11T00:37:35.215Z,30.6
2019-02-11T00:40:41.158Z,30.6
2019-02-11T00:43:47.116Z,30.6
2019-02-11T00:46:52.986Z,30.6
2019-02-11T00:49:58.933Z,30.7
2019-02-11T00:53:05.096Z,30.6
2019-02-11T00:56:10.971Z,30.6
2019-02-11T00:59:16.908Z,30.7
2019-02-11T01:02:24.715Z,30.7
2019-02-11T01:05:30.674Z,30.6
2019-02-11T01:08:36.642Z,30.5
2019-02-11T01:11:42.600Z,30.3
2019-02-11T01:14:48.560Z,30.2
2019-02-11T01:17:54.422Z,30.2
2019-02-11T01:21:00.367Z,30.3
2019-02-11T01:24:06.246Z,30.2
2019-02-11T01:27:12.184Z,30.2
2019-02-11T01:30:18.143Z,30.2
2019-02-11T01:33:24.023Z,30.2
2019-02-11T01:36:29.958Z,30.3
2019-02-11T01:39:35.917Z,30.2
2019-02-11T01:42:41.879Z,30.2
2019-02-11T01:45:47.834Z,30.1
2019-02-11T01:48:56.562Z,30.2
2019-02-11T01:52:02.435Z,30.3
2019-02-11T01:55:08.477Z,30.1
2019-02-11T01:58:14.353Z,30.1
2019-02-11T02:01:20.397Z,30
2019-02-11T02:04:26.271Z,30.1
2019-02-11T02:07:32.212Z,30
2019-02-11T02:10:38.085Z,29.9
2019-02-11T02:13:45.669Z,30
2019-02-11T02:16:54.390Z,29.9
2019-02-11T02:20:00.405Z,29.8
2019-02-11T02:23:06.284Z,29.7
2019-02-11T02:26:12.274Z,29.7
2019-02-11T02:29:18.285Z,29.7
2019-02-11T02:32:24.206Z,29.7
2019-02-11T02:35:30.153Z,29.6
2019-02-11T02:38:36.028Z,29.5
2019-02-11T02:41:41.961Z,29.4
2019-02-11T02:44:47.843Z,29.5
2019-02-11T02:47:53.879Z,29.4
2019-02-11T02:50:59.757Z,29.4
2019-02-11T02:54:05.720Z,29.4
2019-02-11T02:57:11.756Z,29.3
2019-02-11T03:00:17.632Z,29.3
2019-02-11T03:03:23.679Z,29.3
2019-02-11T03:06:29.745Z,29.3
2019-02-11T03:09:35.703Z,29.3
2019-02-11T03:12:41.744Z,29.2
2019-02-11T03:15:47.829Z,29.1
2019-02-11T03:18:53.787Z,29.1
2019-02-11T03:21:59.741Z,29.1
2019-02-11T03:25:05.699Z,29.1
2019-02-11T03:28:11.575Z,29.1
2019-02-11T03:31:17.518Z,29.1
2019-02-11T03:34:23.413Z,29.1
2019-02-11T03:37:29.434Z,29
2019-02-11T03:40:35.395Z,29
2019-02-11T03:43:41.351Z,29
2019-02-11T03:46:47.311Z,28.9
2019-02-11T03:49:53.286Z,28.9
2019-02-11T03:52:59.331Z,28.8
2019-02-11T03:56:05.239Z,28.8
2019-02-11T03:59:11.251Z,28.7
2019-02-11T04:02:17.130Z,28.7
2019-02-11T04:05:23.173Z,28.6
2019-02-11T04:08:29.232Z,28.5
2019-02-11T04:11:37.760Z,28.6
2019-02-11T04:14:43.714Z,28.5
2019-02-11T04:17:49.673Z,28.4
2019-02-11T04:20:55.627Z,28.2
2019-02-11T04:24:01.510Z,28.2
2019-02-11T04:27:07.445Z,28.2
2019-02-11T04:30:13.507Z,28.1
2019-02-11T04:33:19.384Z,28.1
2019-02-11T04:36:25.425Z,28.1
2019-02-11T04:39:31.304Z,32.8
2019-02-11T04:42:37.176Z,30.1
2019-02-11T04:45:43.077Z,29.2
2019-02-11T04:48:49.061Z,29.2
2019-02-11T04:51:55.021Z,28.9
2019-02-11T04:55:03.135Z,28.8
2019-02-11T04:58:09.192Z,28.8
2019-02-11T05:01:15.150Z,28.5
2019-02-11T05:04:21.024Z,28.4
2019-02-11T05:07:27.071Z,28.3
2019-02-11T05:10:33.246Z,28.2
2019-02-11T05:13:39.194Z,28.1
2019-02-11T05:16:45.090Z,28
2019-02-11T05:19:51.113Z,27.9
2019-02-11T05:22:57.071Z,27.7
2019-02-11T05:26:03.030Z,27.7
2019-02-11T05:29:08.988Z,27.8
2019-02-11T05:32:14.879Z,27.6
2019-02-11T05:35:20.909Z,27.6
2019-02-11T05:38:26.870Z,27.5
2019-02-11T05:41:32.909Z,27.5
2019-02-11T05:44:38.996Z,27.5
2019-02-11T05:47:58.038Z,27.5
2019-02-11T05:51:04.016Z,27.5
2019-02-11T05:54:09.976Z,27.3
2019-02-11T05:57:15.933Z,27.3
2019-02-11T06:00:21.808Z,27.5
2019-02-11T06:03:27.965Z,27.6
2019-02-11T06:06:36.488Z,28.2
2019-02-11T06:09:42.469Z,27.7
2019-02-11T06:12:48.394Z,28.1
2019-02-11T06:15:54.282Z,27.6
2019-02-11T06:19:00.316Z,27.4
2019-02-11T06:22:06.195Z,27.7
2019-02-11T06:25:12.129Z,27.3
2019-02-11T06:28:18.076Z,27.5
2019-02-11T06:31:24.049Z,27.1
2019-02-11T06:34:30.114Z,27.3
2019-02-11T06:37:38.119Z,26.9
2019-02-11T06:40:44.078Z,27.2
2019-02-11T06:43:50.037Z,27
2019-02-11T06:46:55.917Z,26.7
2019-02-11T06:50:01.886Z,26.3
2019-02-11T06:53:07.915Z,26.4
2019-02-11T06:56:13.825Z,26.6
2019-02-11T06:59:19.946Z,26.2
2019-02-11T07:02:26.103Z,25.6
2019-02-11T07:05:32.079Z,26
2019-02-11T07:08:38.224Z,25.7
2019-02-11T07:11:44.168Z,26.3
2019-02-11T07:14:50.142Z,25.5
2019-02-11T07:17:57.021Z,25.7
2019-02-11T07:21:02.996Z,26.9
2019-02-11T07:24:08.932Z,26.6
2019-02-11T07:27:14.909Z,25.6
2019-02-11T07:30:20.872Z,25.9
2019-02-11T07:33:26.929Z,25.4
2019-02-11T07:36:33.194Z,25.5
2019-02-11T07:39:39.210Z,25.4
2019-02-11T07:42:45.213Z,25.2
2019-02-11T07:45:51.387Z,25.1
2019-02-11T07:48:57.686Z,25.1
2019-02-11T07:52:03.717Z,25
2019-02-11T07:55:09.780Z,25.2
2019-02-11T07:58:15.733Z,25.5
2019-02-11T08:01:21.699Z,25.1
2019-02-11T08:04:27.750Z,25.3
2019-02-11T08:07:33.712Z,25.1
2019-02-11T08:10:39.771Z,25.2
2019-02-11T08:13:45.834Z,25.6
2019-02-11T08:16:51.893Z,24.8
2019-02-11T08:19:57.857Z,25.4
2019-02-11T08:23:13.791Z,25.2
2019-02-11T08:26:20.020Z,24.8
2019-02-11T08:29:26.026Z,25.1
2019-02-11T08:32:32.066Z,25.4
2019-02-11T08:35:38.207Z,24.6
2019-02-11T08:38:44.257Z,25.8
2019-02-11T08:41:50.321Z,25.4
2019-02-11T08:44:56.286Z,24.7
2019-02-11T08:48:02.388Z,24.9
2019-02-11T08:51:08.611Z,24.2
2019-02-11T08:54:14.622Z,24.2
2019-02-11T08:57:20.652Z,25
2019-02-11T09:00:26.695Z,24.6
2019-02-11T09:03:32.573Z,24.6
2019-02-11T09:06:38.616Z,24.2
2019-02-11T09:09:44.674Z,24.1
2019-02-11T09:12:50.631Z,23.9
2019-02-11T09:15:56.546Z,24.1
2019-02-11T09:19:02.509Z,24.2
2019-02-11T09:22:08.899Z,24
2019-02-11T09:25:14.958Z,24.2
2019-02-11T09:28:20.956Z,24.4
2019-02-11T09:31:26.918Z,24.1
2019-02-11T09:34:32.871Z,23.8
2019-02-11T09:37:38.837Z,24
2019-02-11T09:40:44.882Z,23.7
2019-02-11T09:43:50.953Z,23.6
2019-02-11T09:46:57.117Z,23.6
2019-02-11T09:50:03.277Z,23.7
2019-02-11T09:53:09.342Z,23.7
2019-02-11T09:56:15.408Z,23.6
2019-02-11T09:59:21.468Z,23.4
2019-02-11T10:02:29.495Z,23.5
2019-02-11T10:05:38.301Z,23.4
2019-02-11T10:08:44.560Z,23.2
2019-02-11T10:11:50.629Z,23.4
2019-02-11T10:14:56.689Z,23.4
2019-02-11T10:18:02.752Z,23.7
2019-02-11T10:21:08.715Z,23.2
2019-02-11T10:24:14.675Z,23.1
2019-02-11T10:27:20.660Z,23.1
2019-02-11T10:30:26.693Z,23
2019-02-11T10:33:32.761Z,23.1
2019-02-11T10:36:38.722Z,23.1
2019-02-11T10:39:44.979Z,23
2019-02-11T10:42:50.858Z,23.1
2019-02-11T10:45:56.894Z,23
2019-02-11T10:49:02.965Z,23.2
2019-02-11T10:52:09.138Z,22.8
2019-02-11T10:55:15.188Z,22.9
2019-02-11T10:58:21.146Z,23
2019-02-11T11:01:27.116Z,23.1
2019-02-11T11:04:33.295Z,22.9
2019-02-11T11:07:39.200Z,22.9
2019-02-11T11:10:45.291Z,22.9
2019-02-11T11:13:51.346Z,23.4
2019-02-11T11:16:57.312Z,23.1
2019-02-11T11:20:03.286Z,22.9
2019-02-11T11:23:09.349Z,23.2
2019-02-11T11:26:16.930Z,23
2019-02-11T11:29:22.992Z,23.1
2019-02-11T11:32:28.883Z,23.1
2019-02-11T11:35:34.909Z,23.2
2019-02-11T11:38:40.971Z,23.1
2019-02-11T11:41:46.848Z,23.1
2019-02-11T11:44:53.005Z,23.6
2019-02-11T11:47:59.063Z,23.8
2019-02-11T11:51:05.012Z,23.3
2019-02-11T11:54:10.974Z,23.4
2019-02-11T11:57:17.045Z,23.9
2019-02-11T12:00:23.346Z,23.4
2019-02-11T12:03:29.539Z,23.5
2019-02-11T12:06:35.644Z,23.4
2019-02-11T12:09:44.588Z,23.4
2019-02-11T12:12:50.837Z,23.8
2019-02-11T12:15:59.052Z,23.6
2019-02-11T12:19:05.326Z,23.8
2019-02-11T12:22:13.836Z,23.7
2019-02-11T12:25:19.998Z,23.5
2019-02-11T12:28:28.006Z,23.4
2019-02-11T12:31:34.173Z,23.9
2019-02-11T12:34:40.144Z,23.4
2019-02-11T12:37:46.292Z,23.4
2019-02-11T12:40:52.506Z,24.3
2019-02-11T12:43:58.515Z,23.5
2019-02-11T12:47:15.398Z,23.7
2019-02-11T12:50:21.484Z,23.5
2019-02-11T12:53:27.961Z,23.5
2019-02-11T12:56:34.045Z,23.5
2019-02-11T12:59:40.059Z,23.5
2019-02-11T13:02:46.396Z,23.5
2019-02-11T13:05:52.725Z,23.5
2019-02-11T13:08:58.897Z,23.9
2019-02-11T13:12:04.853Z,23.5
2019-02-11T13:15:11.167Z,23.5
2019-02-11T13:19:06.431Z,23.5
2019-02-11T13:22:12.810Z,23.5
2019-02-11T13:25:19.377Z,23.7
2019-02-11T13:28:25.538Z,23.7
2019-02-11T13:31:31.718Z,23.5
2019-02-11T13:34:37.974Z,23.4
2019-02-11T13:37:44.268Z,23.4
2019-02-11T13:40:50.710Z,23.5
2019-02-11T13:43:57.096Z,23.9
2019-02-11T13:47:04.375Z,23.7
2019-02-11T13:50:10.745Z,23.9
2019-02-11T13:53:17.008Z,24
2019-02-11T13:56:23.091Z,23.9
2019-02-11T13:59:29.258Z,24.1
2019-02-11T14:02:35.295Z,23.7
2019-02-11T14:05:41.592Z,23.7
2019-02-11T14:08:48.747Z,23.5
2019-02-11T14:11:54.813Z,23.5
2019-02-11T14:15:01.225Z,23.5
2019-02-11T14:18:15.190Z,23.4
2019-02-11T14:21:21.705Z,23.4
2019-02-11T14:24:30.735Z,23.6
2019-02-11T14:27:36.616Z,24
2019-02-11T14:30:42.761Z,23.9
2019-02-11T14:33:48.822Z,24
2019-02-11T14:36:54.989Z,24.4
2019-02-11T14:40:01.265Z,24.6
2019-02-11T14:43:07.432Z,24.5
2019-02-11T14:46:13.897Z,24.6
2019-02-11T14:49:22.249Z,24.9
2019-02-11T14:52:28.101Z,24.7
2019-02-11T14:55:34.328Z,25
2019-02-11T14:58:40.283Z,25
2019-02-11T15:01:46.241Z,25
2019-02-11T15:04:52.202Z,25
2019-02-11T15:07:58.255Z,25
2019-02-11T15:11:04.217Z,25.1
2019-02-11T15:14:10.174Z,25.1
2019-02-11T15:17:16.081Z,25.2
2019-02-11T15:20:22.099Z,25.3
2019-02-11T15:23:28.051Z,25.2
2019-02-11T15:26:34.108Z,25.4
2019-02-11T15:29:39.987Z,25.4
2019-02-11T15:32:46.132Z,25.1
2019-02-11T15:35:55.066Z,25.3
2019-02-11T15:39:01.120Z,25.4
2019-02-11T15:42:07.000Z,25.3
2019-02-11T15:45:12.946Z,25.2
2019-02-11T15:48:19.105Z,25.2
2019-02-11T15:51:25.168Z,25.2
2019-02-11T15:54:31.208Z,24.9
2019-02-11T15:57:37.405Z,25
2019-02-11T16:00:43.457Z,25
2019-02-11T16:03:49.334Z,24.8
2019-02-11T16:06:55.272Z,24.6
2019-02-11T16:10:01.169Z,24.7
2019-02-11T16:13:07.190Z,24.7
2019-02-11T16:16:13.066Z,24.6
2019-02-11T16:19:21.987Z,24.6
2019-02-11T16:22:28.143Z,24.5
2019-02-11T16:25:34.101Z,24.6
2019-02-11T16:28:40.057Z,24.6
2019-02-11T16:31:46.128Z,24.6
2019-02-11T16:34:52.186Z,24.5
2019-02-11T16:37:58.054Z,24.7
2019-02-11T16:41:03.999Z,24.5
2019-02-11T16:44:09.877Z,24.6
2019-02-11T16:47:15.915Z,24.5
2019-02-11T16:50:21.855Z,24.4
2019-02-11T16:53:27.729Z,24.3
2019-02-11T16:56:33.727Z,24.3
2019-02-11T16:59:39.694Z,24.2
2019-02-11T17:02:46.029Z,24.1
2019-02-11T17:05:51.903Z,24.2
2019-02-11T17:08:57.950Z,24.2
2019-02-11T17:12:03.909Z,24.1
2019-02-11T17:15:09.969Z,24.1
2019-02-11T17:18:15.929Z,24
2019-02-11T17:21:21.889Z,24
2019-02-11T17:24:27.955Z,24
2019-02-11T17:27:33.909Z,24
2019-02-11T17:30:39.969Z,24
2019-02-11T17:33:45.932Z,24
2019-02-11T17:36:51.879Z,24.1
2019-02-11T17:39:57.849Z,24.1
2019-02-11T17:43:06.776Z,24.1
2019-02-11T17:46:12.739Z,24.1
2019-02-11T17:49:18.688Z,24.1
2019-02-11T17:52:24.563Z,24
2019-02-11T17:55:30.614Z,24
2019-02-11T17:58:36.571Z,24.1
2019-02-11T18:01:42.534Z,24.1
2019-02-11T18:04:48.597Z,24.1
2019-02-11T18:07:54.650Z,24.2
2019-02-11T18:11:00.619Z,24.3
2019-02-11T18:14:06.578Z,24.4
2019-02-11T18:17:15.402Z,24.5
2019-02-11T18:20:21.271Z,24.6
2019-02-11T18:23:27.219Z,24.6
2019-02-11T18:26:33.178Z,24.6
2019-02-11T18:29:39.136Z,24.6
2019-02-11T18:32:45.093Z,24.7
2019-02-11T18:35:51.161Z,24.7
2019-02-11T18:38:57.036Z,24.7
2019-02-11T18:42:03.081Z,24.8
2019-02-11T18:45:10.469Z,24.9
2019-02-11T18:48:16.428Z,24.9
2019-02-11T18:51:22.300Z,24.9
2019-02-11T18:54:28.347Z,25
2019-02-11T18:57:34.223Z,25
2019-02-11T19:00:40.162Z,25
2019-02-11T19:03:46.222Z,25
2019-02-11T19:06:52.167Z,25.1
2019-02-11T19:09:58.149Z,25.1
2019-02-11T19:13:04.315Z,25.1
2019-02-11T19:16:10.268Z,25.2
2019-02-11T19:19:16.256Z,25.2
2019-02-11T19:22:23.003Z,25.2
2019-02-11T19:25:28.880Z,25.3
2019-02-11T19:28:34.764Z,25.3
2019-02-11T19:31:40.782Z,25.3
2019-02-11T19:34:46.655Z,25.4
2019-02-11T19:37:52.598Z,25.4
2019-02-11T19:40:58.470Z,25.5
2019-02-11T19:44:04.531Z,25.6
2019-02-11T19:47:10.579Z,25.5
2019-02-11T19:50:16.552Z,25.6
2019-02-11T19:53:25.383Z,25.6
2019-02-11T19:56:31.337Z,25.7
2019-02-11T19:59:37.284Z,25.7
2019-02-11T20:02:43.242Z,25.8
2019-02-11T20:05:49.310Z,25.8
2019-02-11T20:08:55.264Z,25.8
2019-02-11T20:12:01.154Z,25.9
2019-02-11T20:15:07.185Z,26
2019-02-11T20:18:13.144Z,26.1
2019-02-11T20:21:19.107Z,26.2
2019-02-11T20:24:25.164Z,26.3
2019-02-11T20:27:31.041Z,26.4
2019-02-11T20:30:36.994Z,26.4
2019-02-11T20:33:42.864Z,26.4
2019-02-11T20:36:51.523Z,26.5
2019-02-11T20:40:04.099Z,26.4
2019-02-11T20:43:09.957Z,26.5
2019-02-11T20:46:16.101Z,26.5
2019-02-11T20:49:21.971Z,26.5
2019-02-11T20:52:28.021Z,26.6
2019-02-11T20:55:33.967Z,26.6
2019-02-11T20:58:39.946Z,26.6
2019-02-11T21:01:45.905Z,26.6
2019-02-11T21:04:51.984Z,26.7
2019-02-11T21:07:58.136Z,26.8
2019-02-11T21:11:04.073Z,26.9
2019-02-11T21:14:10.147Z,26.9
2019-02-11T21:17:16.085Z,26.9
2019-02-11T21:20:22.183Z,27
2019-02-11T21:23:28.235Z,27
2019-02-11T21:26:34.196Z,27.1
2019-02-11T21:29:40.137Z,27.2
2019-02-11T21:32:46.116Z,27.3
2019-02-11T21:35:52.481Z,27.3
2019-02-11T21:38:58.640Z,27.4
2019-02-11T21:42:04.525Z,27.5
2019-02-11T21:45:10.564Z,27.6
2019-02-11T21:48:16.441Z,27.6
2019-02-11T21:51:22.375Z,27.7
2019-02-11T21:54:28.447Z,27.7
2019-02-11T21:57:34.359Z,27.8
2019-02-11T22:00:40.385Z,27.9
2019-02-11T22:03:49.345Z,27.9
2019-02-11T22:06:55.458Z,28
2019-02-11T22:10:01.518Z,28.2
2019-02-11T22:13:07.473Z,28.3
2019-02-11T22:16:13.359Z,28.3
2019-02-11T22:19:19.395Z,28.3
2019-02-11T22:22:27.320Z,28.4
2019-02-11T22:25:33.268Z,28.5
2019-02-11T22:28:39.337Z,28.6
2019-02-11T22:31:45.387Z,28.7
2019-02-11T22:34:51.350Z,28.7
2019-02-11T22:37:57.444Z,28.7
2019-02-11T22:41:03.351Z,28.7
2019-02-11T22:44:09.358Z,28.8
2019-02-11T22:47:15.283Z,28.8
2019-02-11T22:50:21.247Z,28.8
2019-02-11T22:53:27.118Z,28.8
2019-02-11T22:56:33.276Z,28.8
2019-02-11T22:59:39.227Z,28.8
2019-02-11T23:02:45.132Z,28.8
2019-02-11T23:05:51.142Z,28.8
2019-02-11T23:08:57.026Z,28.9
2019-02-11T23:12:02.959Z,28.9
2019-02-11T23:15:08.921Z,28.9
2019-02-11T23:18:14.797Z,28.9
2019-02-11T23:21:20.712Z,28.9
2019-02-11T23:24:26.677Z,29
2019-02-11T23:27:32.653Z,29
2019-02-11T23:30:38.619Z,29
2019-02-11T23:33:44.573Z,29
2019-02-11T23:36:50.454Z,29
2019-02-11T23:39:56.394Z,29
2019-02-11T23:43:02.353Z,29.1
2019-02-11T23:46:08.225Z,29.1
2019-02-11T23:49:14.165Z,29.1
2019-02-11T23:52:20.142Z,29.1
2019-02-11T23:55:26.102Z,29.1
2019-02-11T23:58:32.045Z,29.1
